createdAt,value
2019-01-06T00:00:07.106Z,102683.67
2019-01-06T00:02:56.260Z,102715.91
2019-01-06T00:09:18.396Z,102695.34
2019-01-06T00:12:28.334Z,102691.52
2019-01-06T00:15:24.465Z,102694.72
2019-01-06T00:18:32.650Z,102696.67
2019-01-06T00:21:34.502Z,102698.72
2019-01-06T00:24:42.849Z,102713.27
2019-01-06T00:27:45.238Z,102710.75
2019-01-06T00:30:32.613Z,102734.50
2019-01-06T00:33:42.582Z,102728.95
2019-01-06T00:36:44.680Z,102735.70
2019-01-06T00:39:53.002Z,102705.12
2019-01-06T00:42:56.319Z,102710.09
2019-01-06T00:46:04.649Z,102732.02
2019-01-06T00:49:06.007Z,102735.53
2019-01-06T00:52:14.263Z,102739.77
2019-01-06T00:55:15.678Z,102716.09
2019-01-06T01:01:39.740Z,102753.48
2019-01-06T01:04:47.896Z,102756.19
2019-01-06T01:11:03.149Z,102756.89
2019-01-06T01:14:11.319Z,102739.94
2019-01-06T01:17:13.527Z,102737.23
2019-01-06T01:20:17.460Z,102762.73
2019-01-06T01:23:25.683Z,102742.69
2019-01-06T01:26:48.354Z,102768.69
2019-01-06T01:29:42.414Z,102742.56
2019-01-06T01:32:43.551Z,102736.25
2019-01-06T01:35:52.731Z,102764.30
2019-01-06T01:38:53.892Z,102737.02
2019-01-06T01:42:02.410Z,102739.03
2019-01-06T01:45:03.862Z,102748.11
2019-01-06T01:48:27.232Z,102775.16
2019-01-06T01:51:17.152Z,102773.97
2019-01-06T01:54:25.684Z,102752.90
2019-01-06T01:57:27.646Z,102787.34
2019-01-06T02:00:29.112Z,102761.02
2019-01-06T02:03:37.585Z,102767.09
2019-01-06T02:06:39.242Z,102761.17
2019-01-06T02:09:47.757Z,102759.66
2019-01-06T02:12:49.381Z,102789.08
2019-01-06T02:15:57.730Z,102787.33
2019-01-06T02:18:59.088Z,102793.02
2019-01-06T02:22:07.343Z,102791.94
2019-01-06T02:25:08.991Z,102791.45
2019-01-06T02:28:17.141Z,102763.24
2019-01-06T02:31:18.678Z,102765.00
2019-01-06T02:34:27.270Z,102760.86
2019-01-06T02:37:34.292Z,102763.88
2019-01-06T02:40:42.985Z,102763.23
2019-01-06T02:43:44.076Z,102769.45
2019-01-06T02:50:08.872Z,102775.30
2019-01-06T02:53:10.692Z,102799.55
2019-01-06T02:59:14.624Z,102767.73
2019-01-06T03:02:16.132Z,102782.54
2019-01-06T03:05:17.456Z,102777.17
2019-01-06T03:08:26.523Z,102801.77
2019-01-06T03:11:30.429Z,102775.83
2019-01-06T03:14:29.121Z,102795.63
2019-01-06T03:17:33.492Z,102799.08
2019-01-06T03:20:41.753Z,102764.59
2019-01-06T03:23:43.734Z,102768.00
2019-01-06T03:30:01.915Z,102795.08
2019-01-06T03:33:10.194Z,102792.96
2019-01-06T03:36:17.153Z,102766.05
2019-01-06T03:39:20.327Z,102785.13
2019-01-06T03:42:28.560Z,102782.53
2019-01-06T03:45:34.112Z,102758.48
2019-01-06T03:48:42.431Z,102760.25
2019-01-06T03:51:42.078Z,102759.17
2019-01-06T03:54:50.336Z,102759.44
2019-01-06T03:57:51.941Z,102753.50
2019-01-06T04:00:52.218Z,102779.72
2019-01-06T04:04:00.469Z,102764.32
2019-01-06T04:07:08.671Z,102789.73
2019-01-06T04:10:09.832Z,102753.44
2019-01-06T04:13:09.578Z,102779.71
2019-01-06T04:16:17.877Z,102783.27
2019-01-06T04:19:19.350Z,102758.90
2019-01-06T04:22:21.112Z,102785.81
2019-01-06T04:25:30.739Z,102789.44
2019-01-06T04:31:35.243Z,102793.60
2019-01-06T04:34:43.839Z,102765.06
2019-01-06T04:37:45.209Z,102786.09
2019-01-06T04:40:46.965Z,102792.28
2019-01-06T04:43:55.407Z,102763.55
2019-01-06T04:50:18.908Z,102762.81
2019-01-06T04:53:26.748Z,102789.03
2019-01-06T04:56:35.559Z,102757.02
2019-01-06T04:59:36.717Z,102757.25
2019-01-06T05:02:41.466Z,102766.04
2019-01-06T05:05:49.871Z,102763.13
2019-01-06T05:08:51.961Z,102763.88
2019-01-06T05:12:00.473Z,102764.48
2019-01-06T05:15:10.929Z,102791.78
2019-01-06T05:18:07.325Z,102760.00
2019-01-06T05:21:08.425Z,102763.77
2019-01-06T05:24:37.547Z,102763.19
2019-01-06T05:27:38.778Z,102791.23
2019-01-06T05:30:40.756Z,102793.41
2019-01-06T05:33:48.973Z,102774.48
2019-01-06T05:36:50.281Z,102804.54
2019-01-06T05:39:39.515Z,102809.04
2019-01-06T05:42:48.050Z,102804.59
2019-01-06T05:45:45.760Z,102817.47
2019-01-06T05:48:54.146Z,102777.84
2019-01-06T05:51:56.637Z,102815.88
2019-01-06T05:54:58.207Z,102817.04
2019-01-06T05:58:06.717Z,102791.14
2019-01-06T06:01:11.667Z,102790.58
2019-01-06T06:04:20.254Z,102803.41
2019-01-06T06:07:22.402Z,102834.69
2019-01-06T06:10:28.838Z,102832.19
2019-01-06T06:13:37.482Z,102832.48
2019-01-06T06:19:37.761Z,102839.05
2019-01-06T06:22:46.354Z,102815.65
2019-01-06T06:25:47.491Z,102845.34
2019-01-06T06:28:55.926Z,102817.49
2019-01-06T06:35:10.562Z,102849.47
2019-01-06T06:38:19.086Z,102824.11
2019-01-06T06:41:24.000Z,102848.24
2019-01-06T06:44:13.371Z,102853.43
2019-01-06T06:47:21.740Z,102821.03
2019-01-06T06:50:25.705Z,102849.95
2019-01-06T06:56:15.882Z,102848.38
2019-01-06T06:59:24.371Z,102828.06
2019-01-06T07:03:11.045Z,102848.52
2019-01-06T07:06:19.873Z,102825.63
2019-01-06T07:12:43.792Z,102825.85
2019-01-06T07:15:47.318Z,102859.97
2019-01-06T07:22:11.073Z,102841.20
2019-01-06T07:25:19.662Z,102843.59
2019-01-06T07:28:08.827Z,102874.47
2019-01-06T07:31:14.728Z,102850.11
2019-01-06T07:34:22.983Z,102848.59
2019-01-06T07:37:27.214Z,102884.16
2019-01-06T07:40:35.709Z,102857.92
2019-01-06T07:43:37.536Z,102890.05
2019-01-06T07:46:46.064Z,102863.66
2019-01-06T07:49:47.115Z,102897.31
2019-01-06T07:56:09.921Z,102867.61
2019-01-06T07:59:19.385Z,102873.94
2019-01-06T08:02:21.852Z,102888.97
2019-01-06T08:05:22.415Z,102870.48
2019-01-06T08:08:31.133Z,102871.50
2019-01-06T08:11:32.442Z,102883.07
2019-01-06T08:14:41.007Z,102881.72
2019-01-06T08:17:30.136Z,102910.08
2019-01-06T08:20:38.754Z,102917.27
2019-01-06T08:23:45.009Z,102921.13
2019-01-06T08:30:03.019Z,102916.78
2019-01-06T08:33:13.029Z,102897.27
2019-01-06T08:36:14.486Z,102907.85
2019-01-06T08:42:39.731Z,102911.65
2019-01-06T08:52:24.633Z,102927.16
2019-01-06T08:55:32.835Z,102952.12
2019-01-06T08:58:34.124Z,102960.56
2019-01-06T09:01:43.156Z,102933.12
2019-01-06T09:04:44.632Z,102963.16
2019-01-06T09:07:52.883Z,102934.26
2019-01-06T09:10:53.978Z,102960.20
2019-01-06T09:14:02.267Z,102936.91
2019-01-06T09:17:07.211Z,102965.23
2019-01-06T09:20:30.079Z,102958.63
2019-01-06T09:23:19.054Z,102934.69
2019-01-06T09:29:37.082Z,102926.58
2019-01-06T09:32:39.103Z,102932.42
2019-01-06T09:38:42.879Z,102928.64
2019-01-06T09:41:51.107Z,102958.95
2019-01-06T09:44:59.399Z,102927.55
2019-01-06T09:48:00.526Z,102927.23
2019-01-06T09:51:02.472Z,102932.48
2019-01-06T09:54:10.790Z,102934.33
2019-01-06T09:57:19.078Z,102944.92
2019-01-06T10:00:27.898Z,102947.31
2019-01-06T10:03:32.148Z,102967.66
2019-01-06T10:06:40.635Z,102971.34
2019-01-06T10:09:42.950Z,102947.95
2019-01-06T10:13:00.721Z,102968.16
2019-01-06T10:15:57.194Z,102968.70
2019-01-06T10:19:12.193Z,102966.86
2019-01-06T10:22:08.234Z,102965.98
2019-01-06T10:25:08.974Z,102941.53
2019-01-06T10:28:17.273Z,102948.23
2019-01-06T10:31:19.219Z,102940.81
2019-01-06T10:34:27.996Z,102969.77
2019-01-06T10:40:24.823Z,102978.70
2019-01-06T10:43:33.526Z,102947.69
2019-01-06T10:46:41.819Z,102966.73
2019-01-06T10:49:44.134Z,102940.92
2019-01-06T10:52:52.634Z,102965.38
2019-01-06T10:55:54.856Z,102959.58
2019-01-06T10:59:04.923Z,102938.70
2019-01-06T11:02:03.575Z,102962.63
2019-01-06T11:05:07.424Z,102940.71
2019-01-06T11:08:17.994Z,102963.12
2019-01-06T11:11:20.603Z,102940.39
2019-01-06T11:14:36.380Z,102936.64
2019-01-06T11:17:37.870Z,102958.63
2019-01-06T11:20:42.297Z,102965.70
2019-01-06T11:23:52.605Z,102934.42
2019-01-06T11:26:56.545Z,102936.64
2019-01-06T11:30:05.371Z,102963.81
2019-01-06T11:33:08.231Z,102955.25
2019-01-06T11:36:16.866Z,102962.20
2019-01-06T11:39:18.996Z,102937.84
2019-01-06T11:42:29.585Z,102960.62
2019-01-06T11:45:33.530Z,102936.48
2019-01-06T11:48:34.744Z,102936.48
2019-01-06T11:51:43.291Z,102950.34
2019-01-06T11:54:44.292Z,102930.16
2019-01-06T11:57:54.895Z,102956.02
2019-01-06T12:00:58.679Z,102930.67
2019-01-06T12:03:48.090Z,102957.52
2019-01-06T12:06:49.978Z,102959.08
2019-01-06T12:09:58.823Z,102936.36
2019-01-06T12:13:02.593Z,102929.64
2019-01-06T12:16:11.355Z,102922.39
2019-01-06T12:19:01.066Z,102946.42
2019-01-06T12:22:11.813Z,102924.47
2019-01-06T12:25:13.832Z,102927.43
2019-01-06T12:28:42.331Z,102912.54
2019-01-06T12:31:50.962Z,102943.58
2019-01-06T12:34:55.858Z,102942.56
2019-01-06T12:38:04.710Z,102912.66
2019-01-06T12:41:06.082Z,102916.48
2019-01-06T12:44:14.651Z,102941.27
2019-01-06T12:47:15.884Z,102913.05
2019-01-06T12:50:26.133Z,102915.02
2019-01-06T12:53:37.899Z,102948.08
2019-01-06T12:56:43.362Z,102921.23
2019-01-06T12:59:46.344Z,102922.14
2019-01-06T13:02:55.122Z,102921.48
2019-01-06T13:05:59.076Z,102925.06
2019-01-06T13:09:07.871Z,102945.91
2019-01-06T13:12:11.184Z,102954.24
2019-01-06T13:15:19.912Z,102954.36
2019-01-06T13:18:21.584Z,102956.67
2019-01-06T13:21:13.153Z,102955.05
2019-01-06T13:24:15.885Z,102952.06
2019-01-06T13:27:24.747Z,102956.19
2019-01-06T13:30:29.055Z,102931.53
2019-01-06T13:33:37.889Z,102940.30
2019-01-06T13:36:39.723Z,102936.23
2019-01-06T13:39:40.695Z,102957.66
2019-01-06T13:42:49.631Z,102967.33
2019-01-06T13:45:50.638Z,102931.64
2019-01-06T13:49:01.451Z,102934.41
2019-01-06T13:52:02.822Z,102943.50
2019-01-06T13:55:11.402Z,102937.44
2019-01-06T13:58:09.874Z,102965.09
2019-01-06T14:01:13.980Z,102964.06
2019-01-06T14:04:15.344Z,102970.56
2019-01-06T14:07:19.558Z,102947.72
2019-01-06T14:10:28.362Z,102959.42
2019-01-06T14:13:31.020Z,102950.17
2019-01-06T14:16:39.289Z,102980.05
2019-01-06T14:19:40.590Z,102980.10
2019-01-06T14:22:48.974Z,102967.23
2019-01-06T14:25:51.772Z,102952.28
2019-01-06T14:29:00.349Z,102977.52
2019-01-06T14:32:02.511Z,102957.75
2019-01-06T14:35:13.087Z,102961.39
2019-01-06T14:38:14.787Z,102986.70
2019-01-06T14:41:16.411Z,102993.74
2019-01-06T14:44:06.263Z,102996.62
2019-01-06T14:47:07.599Z,102972.00
2019-01-06T14:50:15.923Z,102969.45
2019-01-06T14:53:18.347Z,102997.75
2019-01-06T14:56:27.154Z,102973.24
2019-01-06T14:59:28.895Z,102968.53
2019-01-06T15:02:37.894Z,102997.06
2019-01-06T15:05:39.092Z,102996.31
2019-01-06T15:08:46.197Z,102981.13
2019-01-06T15:11:54.568Z,102979.09
2019-01-06T15:15:05.752Z,103015.25
2019-01-06T15:17:54.975Z,103010.49
2019-01-06T15:21:04.235Z,102982.98
2019-01-06T15:24:12.567Z,102989.00
2019-01-06T15:27:17.032Z,103012.16
2019-01-06T15:30:18.633Z,102993.22
2019-01-06T15:33:26.916Z,103016.17
2019-01-06T15:36:34.017Z,102991.38
2019-01-06T15:39:42.284Z,102985.53
2019-01-06T15:42:50.450Z,103019.04
2019-01-06T15:45:53.405Z,103023.92
2019-01-06T15:49:01.690Z,102998.63
2019-01-06T15:52:08.268Z,102990.82
2019-01-06T15:55:16.606Z,103017.63
2019-01-06T15:58:20.917Z,102994.08
2019-01-06T16:04:28.184Z,103026.03
2019-01-06T16:07:29.155Z,103001.48
2019-01-06T16:10:35.956Z,103005.66
2019-01-06T16:13:44.290Z,103002.67
2019-01-06T16:16:51.370Z,103031.22
2019-01-06T16:19:34.336Z,103031.27
2019-01-06T16:22:44.471Z,103029.93
2019-01-06T16:25:53.033Z,103023.38
2019-01-06T16:28:49.922Z,103030.08
2019-01-06T16:31:58.263Z,103007.98
2019-01-06T16:35:06.557Z,103011.23
2019-01-06T16:38:07.725Z,103016.42
2019-01-06T16:41:05.334Z,103038.38
2019-01-06T16:44:13.615Z,103008.32
2019-01-06T16:47:14.833Z,103041.69
2019-01-06T16:53:43.862Z,103009.08
2019-01-06T16:56:52.274Z,103037.56
2019-01-06T16:59:57.226Z,103014.06
2019-01-06T17:02:59.234Z,103040.27
2019-01-06T17:06:07.850Z,103021.90
2019-01-06T17:09:09.810Z,103034.63
2019-01-06T17:12:18.064Z,103037.52
2019-01-06T17:15:19.732Z,103013.84
2019-01-06T17:18:28.328Z,103040.28
2019-01-06T17:21:29.795Z,103040.81
2019-01-06T17:24:36.145Z,103034.21
2019-01-06T17:27:44.384Z,103042.70
2019-01-06T17:30:46.697Z,103010.59
2019-01-06T17:33:56.827Z,103013.08
2019-01-06T17:37:01.660Z,103046.01
2019-01-06T17:40:09.884Z,103022.29
2019-01-06T17:43:11.329Z,103013.67
2019-01-06T17:46:20.003Z,103042.66
2019-01-06T17:49:28.589Z,103022.45
2019-01-06T17:52:24.712Z,103020.06
2019-01-06T17:55:25.983Z,103052.12
2019-01-06T17:58:35.387Z,103027.31
2019-01-06T18:01:29.915Z,103057.01
2019-01-06T18:04:38.195Z,103056.47
2019-01-06T18:10:55.298Z,103043.73
2019-01-06T18:13:57.232Z,103044.38
2019-01-06T18:16:58.131Z,103065.45
2019-01-06T18:20:00.789Z,103062.74
2019-01-06T18:23:07.835Z,103064.42
2019-01-06T18:26:16.131Z,103061.22
2019-01-06T18:29:17.035Z,103069.45
2019-01-06T18:32:20.841Z,103058.19
2019-01-06T18:35:21.976Z,103067.13
2019-01-06T18:38:28.345Z,103035.01
2019-01-06T18:41:18.340Z,103065.33
2019-01-06T18:44:19.525Z,103029.42
2019-01-06T18:47:20.450Z,103035.16
2019-01-06T18:50:28.890Z,103064.78
2019-01-06T18:53:31.110Z,103060.84
2019-01-06T18:56:36.267Z,103067.65
2019-01-06T18:59:38.073Z,103031.58
2019-01-06T19:02:46.019Z,103059.09
2019-01-06T19:05:54.298Z,103037.25
2019-01-06T19:09:02.394Z,103059.84
2019-01-06T19:12:10.646Z,103052.64
2019-01-06T19:15:11.855Z,103050.47
2019-01-06T19:18:20.103Z,103033.50
2019-01-06T19:21:22.348Z,103039.77
2019-01-06T19:24:30.827Z,103043.88
2019-01-06T19:27:33.921Z,103068.91
2019-01-06T19:30:42.981Z,103049.92
2019-01-06T19:33:43.981Z,103033.97
2019-01-06T19:36:47.956Z,103040.43
2019-01-06T19:39:49.890Z,103045.95
2019-01-06T19:42:51.217Z,103068.02
2019-01-06T19:48:54.170Z,103025.45
2019-01-06T19:52:02.739Z,103027.34
2019-01-06T19:55:02.877Z,103024.97
2019-01-06T19:58:04.133Z,103033.54
2019-01-06T20:00:53.397Z,103052.81
2019-01-06T20:04:01.994Z,103043.69
2019-01-06T20:07:04.725Z,103050.60
2019-01-06T20:09:53.960Z,103041.45
2019-01-06T20:12:43.192Z,103036.80
2019-01-06T20:15:52.549Z,103051.08
2019-01-06T20:18:57.058Z,103031.21
2019-01-06T20:22:06.324Z,103024.92
2019-01-06T20:24:55.780Z,103051.47
2019-01-06T20:27:45.082Z,103053.52
2019-01-06T20:30:48.914Z,103054.67
2019-01-06T20:33:38.524Z,103058.17
2019-01-06T20:36:28.219Z,103054.28
2019-01-06T20:39:30.228Z,103024.81
2019-01-06T20:42:39.221Z,103027.05
2019-01-06T20:45:40.731Z,103030.19
2019-01-06T20:48:49.290Z,103032.72
2019-01-06T20:51:54.519Z,103056.07
2019-01-06T20:55:03.062Z,103052.12
2019-01-06T20:58:07.782Z,103057.63
2019-01-06T21:04:38.615Z,103049.61
2019-01-06T21:07:47.460Z,103039.71
2019-01-06T21:10:42.330Z,103035.91
2019-01-06T21:13:50.638Z,103026.06
2019-01-06T21:16:51.712Z,103039.15
2019-01-06T21:19:59.965Z,103040.62
2019-01-06T21:23:01.372Z,103042.63
2019-01-06T21:26:10.195Z,103069.63
2019-01-06T21:29:14.076Z,103075.34
2019-01-06T21:32:22.986Z,103050.33
2019-01-06T21:35:24.114Z,103050.42
2019-01-06T21:38:33.882Z,103082.27
2019-01-06T21:44:47.793Z,103053.22
2019-01-06T21:47:56.406Z,103071.17
2019-01-06T21:51:03.320Z,103042.30
2019-01-06T21:54:11.891Z,103068.36
2019-01-06T21:57:13.767Z,103036.17
2019-01-06T22:00:22.377Z,103041.69
2019-01-06T22:03:29.857Z,103049.44
2019-01-06T22:06:38.413Z,103061.63
2019-01-06T22:09:40.456Z,103040.64
2019-01-06T22:12:42.391Z,103036.91
2019-01-06T22:15:51.876Z,103070.41
2019-01-06T22:18:54.033Z,103067.37
2019-01-06T22:22:02.923Z,103044.61
2019-01-06T22:25:07.963Z,103041.61
2019-01-06T22:28:12.417Z,103038.39
2019-01-06T22:31:25.388Z,103070.67
2019-01-06T22:34:25.835Z,103036.33
2019-01-06T22:37:34.688Z,103043.31
2019-01-06T22:40:30.210Z,103062.18
2019-01-06T22:43:38.835Z,103026.84
2019-01-06T22:46:40.267Z,103064.28
2019-01-06T22:49:47.766Z,103039.23
2019-01-06T22:52:56.278Z,103025.55
2019-01-06T22:55:59.078Z,103024.69
2019-01-06T22:59:07.870Z,103053.52
2019-01-06T23:02:09.735Z,103029.93
2019-01-06T23:05:18.806Z,103030.11
2019-01-06T23:08:21.057Z,103032.97
2019-01-06T23:11:17.986Z,103027.88
2019-01-06T23:14:26.787Z,103040.22
2019-01-06T23:17:35.637Z,103040.59
2019-01-06T23:20:44.640Z,103066.17
2019-01-06T23:23:33.900Z,103056.55
2019-01-06T23:26:42.720Z,103033.52
2019-01-06T23:29:51.550Z,103052.91
2019-01-06T23:36:01.437Z,103037.14
2019-01-06T23:39:10.325Z,103026.80
2019-01-06T23:42:11.937Z,103027.22
2019-01-06T23:45:20.797Z,103054.32
2019-01-06T23:48:22.892Z,103028.27
2019-01-06T23:51:27.079Z,103027.22
2019-01-06T23:54:35.609Z,103051.56
2019-01-06T23:57:39.940Z,103053.52
